Time;durP1;ratioP1;P1;durP2;ratioP2;P2;SDS_P1;SDS_P2;PMS_P1;PMS_P2;Temp;Humidity;BMP_temperature;BMP_pressure;BME280_temperature;BME280_humidity;BME280_pressure;Samples;Min_cycle;Max_cycle;Signal;HPM_P1;HPM_P2
2022/04/02 00:02:46;;;;;;;13.20;11.70;;;;;;;-0.76;90.16;97344.04;2078953;85;21039;-85
2022/04/02 00:05:47;;;;;;;14.37;11.40;;;;;;;-0.75;90.03;97341.06;2116133;84;20999;-86
2022/04/02 00:08:49;;;;;;;11.67;10.47;;;;;;;-0.75;89.95;97340.66;2091139;84;21171;-84
2022/04/02 00:15:14;;;;;;;44.07;31.87;;;;;;;-0.75;90.19;97334.25;2084701;85;21038;-85
2022/04/02 00:18:15;;;;;;;21.43;18.13;;;;;;;-0.66;93.14;97338.38;2101040;84;20999;-85
2022/04/02 00:21:15;;;;;;;11.13;9.60;;;;;;;1.91;100.00;97331.98;2120617;84;20962;-85
2022/04/02 00:24:16;;;;;;;11.23;9.17;;;;;;;1.34;84.56;97328.53;2120415;84;20928;-85
2022/04/02 00:27:16;;;;;;;12.10;9.17;;;;;;;0.58;84.90;97327.45;2121339;82;21531;-86
2022/04/02 00:33:20;;;;;;;10.27;9.07;;;;;;;-0.20;87.26;97331.21;2096836;85;21063;-86
2022/04/02 00:36:22;;;;;;;11.83;10.20;;;;;;;-0.38;88.11;97341.79;2114351;84;20942;-86
2022/04/02 00:39:22;;;;;;;11.87;10.20;;;;;;;-0.51;88.64;97325.58;2119667;84;20978;-86
2022/04/02 00:42:23;;;;;;;11.50;10.30;;;;;;;-0.58;89.24;97323.66;2112295;84;20947;-86
2022/04/02 00:45:23;;;;;;;11.23;10.10;;;;;;;-0.62;89.40;97332.07;2118746;84;20959;-85
2022/04/02 00:48:24;;;;;;;14.27;10.00;;;;;;;-0.67;89.72;97332.80;2126305;84;20946;-86
2022/04/02 00:54:27;;;;;;;84.60;57.43;;;;;;;-0.73;90.03;97331.33;2099859;84;21038;-86
2022/04/02 00:57:29;;;;;;;25.43;17.17;;;;;;;-0.31;97.84;97333.45;2125721;84;21006;-86
2022/04/02 01:00:29;;;;;;;15.20;11.33;;;;;;;1.67;100.00;97324.98;2118962;84;20995;-86
2022/04/02 01:03:30;;;;;;;9.83;8.80;;;;;;;1.27;85.61;97331.37;2126255;84;20951;-85
2022/04/02 01:09:33;;;;;;;10.60;8.53;;;;;;;0.21;86.01;97339.71;2106611;84;21002;-85
2022/04/02 01:12:35;;;;;;;9.80;7.87;;;;;;;-0.05;86.87;97349.20;2105847;84;20995;-86
2022/04/02 01:18:40;;;;;;;10.05;8.65;;;;;;;-0.48;88.54;97352.59;2092440;85;20998;-85
2022/04/02 01:21:43;;;;;;;10.93;9.20;;;;;;;-0.48;88.54;97352.59;2096519;84;21330;-84
2022/04/02 01:24:43;;;;;;;10.83;8.93;;;;;;;-0.53;88.69;97350.30;2118880;84;20948;-86
2022/04/02 01:30:46;;;;;;;9.83;8.83;;;;;;;-0.65;89.50;97359.34;2092760;85;21034;-84
2022/04/02 01:33:51;;;;;;;9.10;8.30;;;;;;;-0.65;89.46;97358.47;2091709;84;21025;-87
2022/04/02 01:36:52;;;;;;;10.03;8.63;;;;;;;-0.67;89.68;97369.09;2103256;84;21366;-85
2022/04/02 01:39:53;;;;;;;9.67;8.73;;;;;;;-0.68;89.56;97365.65;2103352;84;20983;-85
2022/04/02 01:42:54;;;;;;;9.43;8.43;;;;;;;-0.69;89.64;97363.91;2119371;84;21035;-86
2022/04/02 01:45:54;;;;;;;12.83;9.53;;;;;;;-0.70;89.81;97371.55;2120480;84;20967;-86
2022/04/02 01:48:55;;;;;;;11.47;8.93;;;;;;;-0.71;90.10;97374.52;2119235;84;20943;-84
2022/04/02 01:51:56;;;;;;;9.40;8.40;;;;;;;-0.71;89.93;97369.40;2110863;84;21019;-84
2022/04/02 01:54:56;;;;;;;101.20;67.83;;;;;;;-0.69;90.19;97368.16;2121284;84;20963;-84
2022/04/02 02:01:06;;;;;;;12.60;7.07;;;;;;;2.44;89.05;97364.39;2099187;84;21066;-86
2022/04/02 02:04:06;;;;;;;7.50;6.70;;;;;;;1.36;83.56;97372.27;2120828;84;21417;-85
2022/04/02 02:07:07;;;;;;;10.57;7.47;;;;;;;0.71;84.50;97374.01;2116883;84;20979;-85
2022/04/02 02:10:08;;;;;;;8.27;7.30;;;;;;;0.26;85.52;97374.07;2113265;84;21010;-86
2022/04/02 02:13:08;;;;;;;7.80;7.07;;;;;;;0.01;86.33;97378.05;2120979;84;20966;-86
2022/04/02 02:16:09;;;;;;;10.33;8.73;;;;;;;-0.21;87.11;97375.63;2119580;84;20932;-86
2022/04/02 02:22:12;;;;;;;8.80;7.90;;;;;;;-0.47;88.18;97373.55;2080775;85;20959;-84
2022/04/02 02:25:12;;;;;;;9.13;8.23;;;;;;;-0.56;88.83;97372.86;2101550;84;20946;-86
2022/04/02 02:28:14;;;;;;;9.83;8.80;;;;;;;-0.61;88.67;97370.97;2113740;82;21011;-85
2022/04/02 02:31:15;;;;;;;8.40;7.60;;;;;;;-0.66;89.23;97370.41;2119688;84;20966;-86
2022/04/02 02:37:35;;;;;;;9.00;8.10;;;;;;;-0.75;89.51;97370.13;2114925;84;21042;-88
2022/04/02 02:40:35;;;;;;;9.40;8.40;;;;;;;-0.77;89.80;97367.05;2118317;84;21390;-87
2022/04/02 02:43:36;;;;;;;8.33;7.50;;;;;;;-0.79;89.64;97373.81;2123919;83;21335;-87
2022/04/02 02:46:36;;;;;;;12.10;8.20;;;;;;;-0.82;89.76;97369.47;2108463;84;21322;-87
2022/04/02 02:49:37;;;;;;;8.67;7.87;;;;;;;-0.81;89.73;97371.20;2116551;84;20971;-86
2022/04/02 02:52:37;;;;;;;69.37;50.23;;;;;;;-0.82;89.78;97368.59;2125714;83;20974;-88
2022/04/02 02:55:38;;;;;;;122.97;84.43;;;;;;;-0.02;100.00;97367.66;2101815;84;21060;-83
2022/04/02 03:01:41;;;;;;;6.93;6.20;;;;;;;2.78;83.13;97369.81;2099623;84;21406;-86
2022/04/02 03:04:42;;;;;;;7.20;6.40;;;;;;;1.42;81.48;97381.00;2119130;84;20931;-87
2022/04/02 03:10:46;;;;;;;7.97;7.17;;;;;;;0.13;84.96;97390.36;2102093;84;21047;-85
2022/04/02 03:13:47;;;;;;;9.20;7.40;;;;;;;-0.17;86.11;97386.44;2111832;84;21025;-85
2022/04/02 03:16:48;;;;;;;13.73;8.27;;;;;;;-0.37;86.98;97390.55;2119391;83;20998;-84
2022/04/02 03:19:48;;;;;;;8.87;8.00;;;;;;;-0.49;87.54;97394.02;2113975;84;20983;-85
2022/04/02 03:22:49;;;;;;;8.37;7.53;;;;;;;-0.57;87.96;97392.03;2117703;84;20982;-84
2022/04/02 03:25:49;;;;;;;10.17;8.37;;;;;;;-0.65;88.09;97387.53;2123656;83;21484;-85
2022/04/02 03:28:50;;;;;;;9.63;8.07;;;;;;;-0.67;88.55;97388.30;2077139;83;21023;-84
2022/04/02 03:31:51;;;;;;;10.63;8.73;;;;;;;-0.72;88.57;97391.12;2105187;85;21077;-84
2022/04/02 03:34:52;;;;;;;10.67;9.57;;;;;;;-0.78;88.81;97390.52;2104983;85;21053;-85
2022/04/02 03:37:52;;;;;;;12.83;9.93;;;;;;;-0.79;88.94;97402.00;2105292;85;20947;-85
2022/04/02 03:40:53;;;;;;;9.70;8.80;;;;;;;-0.80;88.93;97397.70;2104435;85;20981;-85
2022/04/02 03:43:56;;;;;;;16.17;11.53;;;;;;;-0.82;89.02;97410.45;2103383;85;21030;-84
2022/04/02 03:47:08;;;;;;;13.67;10.93;;;;;;;-0.81;89.00;97405.80;2104215;84;21086;-84
2022/04/02 03:50:08;;;;;;;11.07;8.93;;;;;;;-0.80;88.87;97419.06;2105042;84;21413;-87
2022/04/02 03:53:09;;;;;;;9.90;8.90;;;;;;;-0.84;88.71;97405.69;2104514;84;20970;-86
2022/04/02 03:56:10;;;;;;;11.07;8.53;;;;;;;-0.84;88.95;97408.25;2105330;85;21034;-85
2022/04/02 03:59:12;;;;;;;9.80;8.80;;;;;;;-0.86;89.11;97408.61;2104554;85;21074;-85
2022/04/02 04:02:13;;;;;;;10.73;9.27;;;;;;;-0.85;88.76;97411.64;2103937;83;21105;-84
2022/04/02 04:05:13;;;;;;;10.07;8.53;;;;;;;-0.87;88.96;97413.24;2103520;85;20974;-85
2022/04/02 04:08:14;;;;;;;12.53;9.70;;;;;;;-0.91;88.99;97419.49;2103314;85;21009;-85
2022/04/02 04:11:16;;;;;;;12.90;9.63;;;;;;;-0.91;89.09;97419.49;2103283;85;21094;-84
2022/04/02 04:14:17;;;;;;;10.07;8.80;;;;;;;-0.91;89.05;97422.05;2104099;85;21105;-84
2022/04/02 04:17:17;;;;;;;9.83;8.53;;;;;;;-0.91;89.14;97417.80;2103604;85;20981;-83
2022/04/02 04:20:18;;;;;;;8.70;7.90;;;;;;;-0.91;89.22;97426.77;2090605;85;20998;-84
2022/04/02 04:23:19;;;;;;;10.00;8.10;;;;;;;-0.91;88.96;97430.61;2103864;83;20950;-83
2022/04/02 04:26:19;;;;;;;10.50;9.03;;;;;;;-0.92;88.78;97428.87;2104841;85;20967;-83
2022/04/02 04:29:20;;;;;;;9.30;8.40;;;;;;;-0.92;89.06;97426.30;2110780;84;21036;-83
2022/04/02 04:35:23;;;;;;;12.10;10.47;;;;;;;-0.90;89.00;97423.39;2103752;84;20991;-82
2022/04/02 04:38:24;;;;;;;9.40;8.30;;;;;;;-0.89;89.19;97420.41;2120803;84;20896;-83
2022/04/02 04:41:24;;;;;;;9.60;8.53;;;;;;;-0.88;89.04;97415.75;2123490;83;20943;-82
2022/04/02 04:44:25;;;;;;;10.07;8.40;;;;;;;-0.85;88.95;97422.29;2117361;84;21020;-84
2022/04/02 04:47:27;;;;;;;9.70;8.00;;;;;;;-0.84;88.83;97422.34;2096822;84;20990;-84
2022/04/02 04:50:29;;;;;;;9.43;8.37;;;;;;;-0.80;88.59;97427.16;2090907;85;21054;-84
2022/04/02 04:53:31;;;;;;;35.03;31.20;;;;;;;-0.79;88.56;97433.62;2113066;84;21094;-84
2022/04/02 04:59:34;;;;;;;9.27;8.23;;;;;;;-0.74;88.37;97441.05;2105514;83;21042;-84
2022/04/02 05:02:35;;;;;;;10.13;8.33;;;;;;;-0.72;88.06;97443.25;2125928;84;20971;-83
2022/04/02 05:05:35;;;;;;;9.43;7.90;;;;;;;-0.69;87.89;97443.76;2114327;84;20986;-82
2022/04/02 05:08:36;;;;;;;11.23;8.17;;;;;;;-0.68;87.95;97450.22;2124251;84;20959;-84
2022/04/02 05:11:36;;;;;;;11.03;7.70;;;;;;;-0.69;87.58;97448.47;2112171;83;20959;-84
2022/04/02 05:14:37;;;;;;;10.63;8.40;;;;;;;-0.69;87.80;97451.03;2119305;84;21417;-84
2022/04/02 05:17:37;;;;;;;9.10;8.13;;;;;;;-0.69;87.51;97448.47;2110223;83;21007;-84
2022/04/02 05:20:38;;;;;;;9.90;8.90;;;;;;;-0.67;87.49;97450.67;2109103;84;20982;-83
2022/04/02 05:23:39;;;;;;;8.57;7.77;;;;;;;-0.65;87.55;97454.57;2118163;84;21420;-82
2022/04/02 05:26:40;;;;;;;9.07;8.17;;;;;;;-0.63;87.33;97459.75;2119829;83;21382;-83
2022/04/02 05:29:40;;;;;;;9.47;7.67;;;;;;;-0.62;87.12;97457.64;2124348;84;21010;-84
2022/04/02 05:32:42;;;;;;;8.13;7.33;;;;;;;-0.59;86.90;97460.31;2121759;84;21171;-82
2022/04/02 05:35:42;;;;;;;8.27;7.47;;;;;;;-0.57;86.75;97458.26;2114545;84;21402;-83
2022/04/02 05:38:43;;;;;;;7.90;7.13;;;;;;;-0.58;86.62;97468.05;2124808;84;20998;-83
2022/04/02 05:41:43;;;;;;;6.77;6.10;;;;;;;-0.58;86.41;97469.33;2112270;84;20954;-84
2022/04/02 05:44:44;;;;;;;8.17;7.20;;;;;;;-0.57;86.33;97471.48;2119588;84;20947;-83
2022/04/02 05:47:45;;;;;;;7.70;6.50;;;;;;;-0.55;86.34;97476.25;2126125;84;20939;-84
2022/04/02 05:50:45;;;;;;;8.23;7.43;;;;;;;-0.52;86.29;97478.50;2125464;84;21353;-83
2022/04/02 05:53:46;;;;;;;8.40;7.60;;;;;;;-0.45;86.28;97478.29;2112476;84;20971;-83
2022/04/02 05:56:46;;;;;;;8.30;7.37;;;;;;;-0.37;86.21;97479.00;2118836;84;21053;-83
2022/04/02 05:59:47;;;;;;;9.83;7.83;;;;;;;-0.32;85.89;97483.00;2119396;84;21022;-84
2022/04/02 06:02:48;;;;;;;8.87;7.67;;;;;;;-0.31;85.55;97486.02;2110477;83;21476;-83
2022/04/02 06:05:49;;;;;;;10.17;8.00;;;;;;;-0.29;85.53;97488.22;2118204;84;21053;-83
2022/04/02 06:08:49;;;;;;;10.40;8.50;;;;;;;-0.29;85.40;97493.77;2119046;83;20982;-83
2022/04/02 06:11:50;;;;;;;26.53;13.07;;;;;;;-0.31;85.23;97489.86;2110982;83;21029;-83
2022/04/02 06:14:50;;;;;;;10.27;8.33;;;;;;;-0.28;85.20;97498.94;2111944;83;20983;-84
2022/04/02 06:17:51;;;;;;;9.07;8.17;;;;;;;-0.27;85.17;97494.69;2118432;84;20986;-84
2022/04/02 06:20:52;;;;;;;12.67;9.97;;;;;;;-0.25;84.87;97497.75;2110686;84;22061;-83
2022/04/02 06:23:52;;;;;;;8.87;7.97;;;;;;;-0.22;84.94;97506.83;2115781;83;20994;-82
2022/04/02 06:26:53;;;;;;;8.80;7.90;;;;;;;-0.19;84.64;97502.21;2124036;83;21014;-84
2022/04/02 06:29:54;;;;;;;7.77;6.97;;;;;;;-0.19;84.51;97508.21;2114920;84;21065;-82
2022/04/02 06:32:54;;;;;;;9.63;8.00;;;;;;;-0.16;84.53;97507.03;2102083;85;20954;-82
2022/04/02 06:35:55;;;;;;;33.00;15.30;;;;;;;-0.14;84.29;97502.82;2102274;85;21022;-81
2022/04/02 06:38:56;;;;;;;8.30;7.50;;;;;;;-0.15;83.54;97513.03;2102730;85;20990;-81
2022/04/02 06:41:57;;;;;;;9.03;7.13;;;;;;;-0.15;83.71;97513.90;2099732;84;21008;-81
2022/04/02 06:44:58;;;;;;;28.97;15.40;;;;;;;-0.15;83.53;97511.75;2089157;85;20984;-81
2022/04/02 06:47:58;;;;;;;8.33;7.20;;;;;;;-0.10;84.14;97512.35;2098643;84;20994;-81
2022/04/02 06:50:59;;;;;;;8.07;7.27;;;;;;;-0.09;83.44;97513.22;2117345;84;21002;-81
2022/04/02 06:53:59;;;;;;;8.90;7.47;;;;;;;-0.11;82.94;97520.87;2091042;84;21022;-82
2022/04/02 06:57:00;;;;;;;8.93;7.17;;;;;;;-0.10;83.45;97509.78;2098428;84;21006;-84
2022/04/02 07:00:00;;;;;;;9.37;7.70;;;;;;;-0.08;82.95;97511.99;2119938;84;20955;-83
2022/04/02 07:03:01;;;;;;;10.93;8.13;;;;;;;-0.04;82.86;97526.66;2118362;84;21350;-85
2022/04/02 07:06:01;;;;;;;11.23;9.40;;;;;;;0.06;82.94;97524.41;2119707;84;20975;-82
2022/04/02 07:09:02;;;;;;;14.87;10.70;;;;;;;0.23;82.38;97525.40;2109742;84;20991;-83
2022/04/02 07:12:02;;;;;;;10.60;7.93;;;;;;;0.22;81.88;97526.63;2119046;84;20994;-82
2022/04/02 07:15:03;;;;;;;11.67;9.07;;;;;;;0.19;81.22;97531.67;2092037;84;21058;-82
2022/04/02 07:18:04;;;;;;;9.17;8.07;;;;;;;0.15;81.50;97520.85;2091498;84;21075;-82
2022/04/02 07:21:05;;;;;;;9.57;7.90;;;;;;;0.31;81.51;97525.63;2099362;84;21054;-83
2022/04/02 07:24:05;;;;;;;9.93;8.37;;;;;;;0.32;81.17;97531.23;2097661;84;20958;-82
2022/04/02 07:27:07;;;;;;;11.20;9.33;;;;;;;0.32;81.95;97533.80;2108178;84;21033;-84
2022/04/02 07:30:08;;;;;;;18.37;11.90;;;;;;;0.35;80.51;97529.16;2122433;84;20986;-84
2022/04/02 07:33:08;;;;;;;15.03;11.37;;;;;;;0.33;80.72;97534.66;2120302;84;21017;-83
2022/04/02 07:36:09;;;;;;;9.13;7.90;;;;;;;0.41;80.79;97535.36;2117404;84;21045;-84
2022/04/02 07:39:11;;;;;;;12.07;8.93;;;;;;;0.45;80.38;97540.17;2111762;84;20986;-84
2022/04/02 07:42:12;;;;;;;12.57;8.13;;;;;;;0.46;79.92;97542.78;2125664;84;21426;-85
2022/04/02 07:45:13;;;;;;;8.97;7.30;;;;;;;0.46;79.94;97542.78;2125989;84;21046;-83
2022/04/02 07:48:14;;;;;;;17.27;12.07;;;;;;;0.44;80.32;97548.70;2111242;84;21050;-83
2022/04/02 07:51:15;;;;;;;30.43;18.73;;;;;;;0.42;79.81;97546.08;2118093;84;20986;-84
2022/04/02 07:54:17;;;;;;;36.07;22.73;;;;;;;0.38;79.74;97546.81;2108498;84;21053;-84
2022/04/02 07:57:17;;;;;;;23.43;17.07;;;;;;;0.41;79.75;97555.02;2116166;84;21196;-84
2022/04/02 08:00:19;;;;;;;20.80;14.30;;;;;;;0.42;79.50;97549.94;2122789;84;21045;-82
2022/04/02 08:03:20;;;;;;;16.97;11.57;;;;;;;0.43;79.61;97564.52;2122726;84;20982;-81
2022/04/02 08:06:20;;;;;;;13.97;11.37;;;;;;;0.52;79.78;97562.22;2115724;84;21002;-82
2022/04/02 08:09:21;;;;;;;10.30;9.20;;;;;;;0.61;79.92;97558.65;2115736;84;21002;-82
2022/04/02 08:12:22;;;;;;;9.57;8.40;;;;;;;0.69;79.91;97556.31;2116865;84;21508;-84
2022/04/02 08:15:22;;;;;;;13.10;10.30;;;;;;;0.72;78.83;97562.82;2122878;84;21037;-83
2022/04/02 08:18:23;;;;;;;10.63;8.53;;;;;;;0.57;78.08;97572.63;2117569;84;21005;-84
2022/04/02 08:21:23;;;;;;;9.97;8.27;;;;;;;0.58;78.83;97573.97;2117360;84;21398;-83
2022/04/02 08:24:24;;;;;;;9.70;8.70;;;;;;;0.63;78.99;97577.55;2125483;84;20927;-82
2022/04/02 08:27:24;;;;;;;13.23;11.07;;;;;;;0.68;78.82;97572.95;2097394;84;20998;-82
2022/04/02 08:30:35;;;;;;;9.47;8.57;;;;;;;0.66;78.56;97584.47;2107261;84;20975;-83
2022/04/02 08:33:36;;;;;;;12.70;9.17;;;;;;;0.63;78.77;97581.81;2119438;84;20967;-81
2022/04/02 08:36:37;;;;;;;9.97;8.97;;;;;;;0.79;78.99;97585.30;2118443;84;21058;-82
2022/04/02 08:39:38;;;;;;;13.17;11.37;;;;;;;0.76;78.57;97592.03;2118715;84;21668;-83
2022/04/02 08:42:38;;;;;;;14.90;13.40;;;;;;;0.63;78.61;97589.09;2106900;84;21025;-83
2022/04/02 08:45:39;;;;;;;11.13;9.30;;;;;;;2.02;99.51;97587.01;2109525;84;20970;-80
2022/04/02 08:48:39;;;;;;;9.63;8.63;;;;;;;2.21;79.31;97593.94;2119701;84;20962;-83
2022/04/02 08:51:41;;;;;;;8.50;7.70;;;;;;;2.01;75.56;97599.00;2119144;84;21007;-84
2022/04/02 08:54:41;;;;;;;13.30;9.93;;;;;;;1.37;74.80;97603.70;2117157;84;22099;-83
2022/04/02 08:57:42;;;;;;;13.83;11.63;;;;;;;1.00;76.84;97600.50;2109165;84;21046;-83
2022/04/02 09:03:45;;;;;;;10.87;8.50;;;;;;;1.50;76.75;97612.20;2079186;85;21054;-81
2022/04/02 09:06:45;;;;;;;9.53;8.00;;;;;;;1.17;76.27;97626.27;2101323;84;20966;-82
2022/04/02 09:09:46;;;;;;;9.90;8.77;;;;;;;0.83;75.69;97614.52;2109080;84;20983;-82
2022/04/02 09:12:47;;;;;;;11.63;9.70;;;;;;;0.69;76.87;97626.06;2091060;85;21063;-83
2022/04/02 09:15:50;;;;;;;14.20;10.90;;;;;;;0.58;77.04;97629.17;2119324;84;21018;-83
2022/04/02 09:18:50;;;;;;;11.20;8.87;;;;;;;0.56;77.21;97620.55;2119169;84;21037;-81
2022/04/02 09:21:50;;;;;;;10.03;9.00;;;;;;;0.53;77.41;97626.00;2098415;84;20990;-82
2022/04/02 09:24:51;;;;;;;10.63;8.77;;;;;;;0.48;77.40;97625.86;2093665;84;20963;-82
2022/04/02 09:27:51;;;;;;;11.23;9.63;;;;;;;0.51;77.72;97625.95;2099440;84;21464;-82
2022/04/02 09:30:52;;;;;;;10.97;9.73;;;;;;;0.45;76.94;97639.02;2117571;84;21470;-83
2022/04/02 09:33:52;;;;;;;13.47;10.23;;;;;;;0.42;77.48;97631.21;2110152;84;21396;-83
2022/04/02 09:36:59;;;;;;;12.83;9.80;;;;;;;0.37;77.42;97640.46;2100075;84;21361;-84
2022/04/02 09:39:55;;;;;;;11.30;9.53;;;;;;;0.31;77.19;97649.70;2107587;84;21071;-83
2022/04/02 09:42:56;;;;;;;12.83;8.93;;;;;;;0.33;77.09;97647.19;2118449;84;21045;-84
2022/04/02 09:45:57;;;;;;;13.63;10.10;;;;;;;0.43;77.34;97645.38;2090200;84;20986;-81
2022/04/02 09:48:57;;;;;;;12.87;9.77;;;;;;;0.57;77.47;97637.70;2090401;84;20990;-83
2022/04/02 09:51:58;;;;;;;11.33;8.70;;;;;;;0.72;77.28;97642.44;2091047;84;20975;-83
2022/04/02 09:54:58;;;;;;;11.03;8.53;;;;;;;0.69;76.31;97638.91;2091823;85;21429;-83
2022/04/02 09:57:59;;;;;;;20.50;13.83;;;;;;;0.66;75.99;97650.37;2109107;84;21409;-82
2022/04/02 10:00:59;;;;;;;9.73;8.73;;;;;;;0.53;76.56;97652.97;2118641;84;21354;-85
2022/04/02 10:04:00;;;;;;;10.67;9.57;;;;;;;0.57;76.80;97651.83;2110156;84;21005;-83
2022/04/02 10:07:00;;;;;;;10.30;9.20;;;;;;;0.63;77.11;97646.02;2117701;84;20998;-82
2022/04/02 10:10:01;;;;;;;10.33;9.33;;;;;;;0.59;76.64;97650.59;2110499;84;20958;-82
2022/04/02 10:13:02;;;;;;;11.27;9.77;;;;;;;0.59;76.92;97658.30;2099042;84;20991;-82
2022/04/02 10:16:02;;;;;;;10.47;9.33;;;;;;;0.62;76.69;97653.25;2088822;84;21022;-80
2022/04/02 10:19:03;;;;;;;11.50;9.43;;;;;;;0.60;76.05;97661.32;2088858;84;21021;-83
2022/04/02 10:22:03;;;;;;;10.80;9.17;;;;;;;0.56;76.59;97657.78;2088598;85;20982;-81
2022/04/02 10:25:04;;;;;;;11.50;10.13;;;;;;;0.56;76.58;97658.20;2106019;84;20966;-82
2022/04/02 10:28:04;;;;;;;20.47;14.23;;;;;;;0.56;76.92;97658.20;2107263;84;21046;-82
2022/04/02 10:31:05;;;;;;;17.77;13.63;;;;;;;0.59;77.38;97663.02;2095368;84;21046;-81
2022/04/02 10:34:05;;;;;;;26.37;17.13;;;;;;;0.61;77.01;97669.08;2115551;84;21006;-83
2022/04/02 10:37:05;;;;;;;13.03;10.67;;;;;;;0.64;77.10;97670.87;2120242;83;21010;-83
2022/04/02 10:40:06;;;;;;;16.23;11.47;;;;;;;0.60;76.31;97669.90;2119047;84;20946;-80
2022/04/02 10:43:07;;;;;;;15.20;11.73;;;;;;;0.52;76.65;97675.20;2108861;83;20975;-80
2022/04/02 10:46:07;;;;;;;15.33;12.57;;;;;;;0.46;76.41;97675.00;2117381;84;20970;-83
2022/04/02 10:49:08;;;;;;;14.93;11.70;;;;;;;0.46;77.14;97674.13;2116432;84;20982;-80
2022/04/02 10:52:08;;;;;;;18.17;12.57;;;;;;;0.52;77.01;97682.91;2124999;83;21009;-81
2022/04/02 10:55:09;;;;;;;13.73;10.87;;;;;;;0.46;76.76;97677.98;2114537;84;21006;-81
2022/04/02 10:58:09;;;;;;;14.40;10.80;;;;;;;0.48;76.94;97684.91;2115964;84;21069;-82
2022/04/02 11:01:10;;;;;;;14.30;11.27;;;;;;;0.54;76.96;97691.53;2117871;84;20947;-81
2022/04/02 11:04:10;;;;;;;14.53;11.57;;;;;;;0.55;76.93;97685.57;2122924;83;20951;-80
2022/04/02 11:07:11;;;;;;;16.67;12.60;;;;;;;0.52;76.95;97688.45;2120574;84;21014;-80
2022/04/02 11:10:11;;;;;;;18.07;13.17;;;;;;;0.61;77.20;97684.89;2122521;83;20990;-83
2022/04/02 11:13:12;;;;;;;21.57;12.90;;;;;;;0.70;76.83;97685.59;2125464;84;20982;-80
2022/04/02 11:16:12;;;;;;;16.37;12.67;;;;;;;0.69;76.51;97688.58;2125567;84;21006;-81
2022/04/02 11:22:31;;;;;;;15.87;11.90;;;;;;;0.60;76.70;97698.15;2117566;84;21085;-81
2022/04/02 11:25:32;;;;;;;15.63;12.53;;;;;;;0.47;76.95;97705.40;2118299;84;20935;-81
2022/04/02 11:28:33;;;;;;;14.90;11.83;;;;;;;0.43;77.27;97699.70;2118143;84;21065;-82
2022/04/02 11:31:33;;;;;;;15.77;12.60;;;;;;;0.43;77.17;97704.43;2110374;83;20994;-82
2022/04/02 11:34:34;;;;;;;14.37;10.93;;;;;;;0.43;77.51;97707.41;2119493;84;20986;-82
2022/04/02 11:37:34;;;;;;;14.07;11.13;;;;;;;0.41;77.46;97699.66;2117045;84;21005;-82
2022/04/02 11:40:35;;;;;;;14.63;12.10;;;;;;;0.40;77.46;97706.89;2109209;83;20942;-80
2022/04/02 11:43:36;;;;;;;15.33;11.40;;;;;;;0.46;77.42;97709.66;2116615;84;21026;-82
2022/04/02 11:46:36;;;;;;;15.63;12.23;;;;;;;0.47;77.35;97715.27;2109497;83;20994;-83
2022/04/02 11:49:39;;;;;;;15.60;12.07;;;;;;;0.48;77.54;97716.13;2118860;84;20994;-82
2022/04/02 11:52:39;;;;;;;14.87;11.63;;;;;;;0.58;77.11;97716.48;2112971;83;21485;-82
2022/04/02 11:55:39;;;;;;;15.83;11.70;;;;;;;0.61;76.76;97710.16;2118344;84;21006;-82
2022/04/02 11:58:40;;;;;;;13.77;11.40;;;;;;;0.61;77.20;97710.58;2116651;84;21034;-81
2022/04/02 12:01:43;;;;;;;13.53;11.57;;;;;;;0.65;77.27;97720.13;2116104;84;20985;-82
2022/04/02 12:04:44;;;;;;;16.57;11.83;;;;;;;0.64;76.84;97712.83;2109454;84;20978;-82
2022/04/02 12:07:44;;;;;;;16.40;12.13;;;;;;;0.67;76.92;97724.03;2116245;84;21497;-83
2022/04/02 12:10:45;;;;;;;24.27;13.80;;;;;;;0.69;76.34;97724.53;2117263;84;21334;-83
2022/04/02 12:13:45;;;;;;;18.00;13.07;;;;;;;0.71;76.72;97723.30;2115082;84;21410;-86
2022/04/02 12:16:46;;;;;;;17.50;12.87;;;;;;;0.71;76.67;97724.59;2117212;83;21298;-83
2022/04/02 12:19:46;;;;;;;15.13;12.00;;;;;;;0.71;76.54;97733.16;2119287;83;20958;-83
2022/04/02 12:22:47;;;;;;;13.43;11.90;;;;;;;0.81;76.47;97718.92;2120436;84;20950;-83
2022/04/02 12:25:48;;;;;;;14.27;12.07;;;;;;;0.91;76.26;97722.27;2116438;84;21086;-83
2022/04/02 12:28:48;;;;;;;15.90;13.33;;;;;;;1.03;76.60;97725.22;2122927;83;21053;-81
2022/04/02 12:31:50;;;;;;;15.20;12.07;;;;;;;1.14;76.45;97721.70;2114575;84;21026;-82
2022/04/02 12:34:50;;;;;;;15.53;12.27;;;;;;;1.21;76.05;97727.07;2089857;84;21038;-82
2022/04/02 12:37:51;;;;;;;14.87;11.73;;;;;;;1.20;76.30;97724.04;2100232;84;20971;-83
2022/04/02 12:40:52;;;;;;;14.07;11.70;;;;;;;1.25;76.32;97722.89;2091380;85;21082;-82
2022/04/02 12:43:53;;;;;;;18.57;12.50;;;;;;;1.16;75.76;97736.34;2100110;83;21427;-83
2022/04/02 12:46:54;;;;;;;16.07;12.77;;;;;;;1.20;76.02;97724.04;2107651;83;20987;-85
2022/04/02 12:49:54;;;;;;;14.23;11.77;;;;;;;1.29;76.47;97736.30;2120448;84;21385;-82
2022/04/02 12:52:55;;;;;;;18.23;13.00;;;;;;;1.40;75.63;97737.91;2117884;84;20970;-81
2022/04/02 12:55:56;;;;;;;15.20;12.43;;;;;;;1.44;75.98;97741.90;2118677;84;20982;-82
2022/04/02 12:58:57;;;;;;;18.37;13.73;;;;;;;1.53;75.70;97747.73;2109093;84;21058;-83
2022/04/02 13:01:58;;;;;;;15.73;12.63;;;;;;;1.63;75.95;97742.02;2108973;84;20951;-83
2022/04/02 13:04:58;;;;;;;15.43;12.17;;;;;;;1.70;75.43;97745.23;2097731;83;21033;-83
2022/04/02 13:07:59;;;;;;;21.60;16.70;;;;;;;1.68;75.39;97755.02;2121897;84;21006;-82
2022/04/02 13:10:59;;;;;;;16.00;13.00;;;;;;;1.73;75.72;97747.02;2108846;84;21017;-82
2022/04/02 13:14:00;;;;;;;18.43;13.07;;;;;;;1.75;75.60;97746.27;2120655;84;21018;-83
2022/04/02 13:17:00;;;;;;;17.83;14.10;;;;;;;1.75;75.53;97739.84;2120233;84;20955;-82
2022/04/02 13:23:20;;;;;;;15.50;12.93;;;;;;;1.82;75.98;97754.63;2110175;84;21009;-81
2022/04/02 13:26:20;;;;;;;19.17;14.23;;;;;;;1.73;75.85;97756.02;2093969;84;20983;-82
2022/04/02 13:29:21;;;;;;;21.83;15.97;;;;;;;1.66;76.17;97763.98;2120660;84;21066;-81
2022/04/02 13:32:21;;;;;;;17.17;13.17;;;;;;;1.65;76.46;97762.23;2110006;84;20991;-81
2022/04/02 13:35:22;;;;;;;21.13;13.90;;;;;;;1.68;76.57;97755.89;2110335;84;21357;-83
2022/04/02 13:38:22;;;;;;;19.27;13.87;;;;;;;1.75;76.23;97757.84;2119341;84;20915;-80
2022/04/02 13:41:23;;;;;;;16.60;13.33;;;;;;;1.73;76.45;97765.03;2093018;84;20920;-82
2022/04/02 13:44:23;;;;;;;17.73;13.13;;;;;;;1.76;76.36;97762.16;2119193;83;20986;-81
2022/04/02 13:47:24;;;;;;;31.30;16.80;;;;;;;1.73;76.29;97755.61;2108211;84;20950;-80
2022/04/02 13:50:24;;;;;;;18.73;14.70;;;;;;;1.72;76.80;97771.00;2109352;84;21037;-81
2022/04/02 13:53:25;;;;;;;17.00;12.57;;;;;;;1.71;76.91;97771.42;2117983;84;21005;-80
2022/04/02 13:56:25;;;;;;;17.23;14.20;;;;;;;1.72;77.11;97769.30;2117536;84;21002;-80
2022/04/02 13:59:26;;;;;;;18.60;13.70;;;;;;;1.76;77.29;97771.58;2106283;84;21419;-82
2022/04/02 14:02:26;;;;;;;19.63;14.23;;;;;;;1.82;77.43;97774.33;2101385;84;21349;-81
2022/04/02 14:05:29;;;;;;;21.67;15.10;;;;;;;1.77;77.36;97778.06;2118997;83;21287;-82
2022/04/02 14:08:30;;;;;;;20.20;15.73;;;;;;;1.80;77.74;97773.42;2116992;84;20998;-80
2022/04/02 14:11:30;;;;;;;23.50;16.03;;;;;;;1.75;77.60;97781.00;2112288;84;21394;-84
2022/04/02 14:14:32;;;;;;;22.27;18.27;;;;;;;1.72;77.91;97783.86;2100830;84;20971;-81
2022/04/02 14:17:33;;;;;;;21.90;15.50;;;;;;;1.67;78.34;97781.16;2118911;84;20998;-82
2022/04/02 14:20:33;;;;;;;19.00;11.83;;;;;;;1.64;78.52;97781.48;2109657;84;21334;-79
2022/04/02 14:23:34;;;;;;;18.50;13.70;;;;;;;1.86;88.35;97786.05;2107487;83;21319;-82
2022/04/02 14:26:34;;;;;;;14.03;12.20;;;;;;;2.69;79.22;97787.04;2091218;84;20939;-85
2022/04/02 14:29:35;;;;;;;17.03;13.53;;;;;;;2.41;77.45;97789.27;2109010;84;21014;-82
2022/04/02 14:32:36;;;;;;;18.67;14.90;;;;;;;2.22;77.54;97789.19;2110912;84;21066;-84
2022/04/02 14:35:38;;;;;;;16.80;14.13;;;;;;;2.49;89.08;97784.78;2112162;84;20970;-81
2022/04/02 14:38:39;;;;;;;18.17;13.43;;;;;;;2.70;77.56;97792.65;2118675;84;21015;-82
2022/04/02 14:41:39;;;;;;;19.00;13.13;;;;;;;2.54;77.28;97792.63;2109475;84;20943;-80
2022/04/02 14:44:40;;;;;;;18.07;13.07;;;;;;;2.42;77.62;97790.61;2119003;84;21014;-79
2022/04/02 14:47:40;;;;;;;15.27;12.97;;;;;;;2.33;77.38;97800.66;2117514;84;20943;-79
2022/04/02 14:50:41;;;;;;;16.57;13.57;;;;;;;2.26;77.74;97807.76;2115680;84;20991;-79
2022/04/02 14:53:41;;;;;;;22.37;15.10;;;;;;;2.17;78.11;97801.94;2102042;84;20939;-79
2022/04/02 14:56:42;;;;;;;16.17;12.80;;;;;;;2.14;78.43;97802.27;2118836;84;20912;-83